Frederika, IA (50631)

10:42 PM CST on December 26, 2014 (GMT -0600)
Wartburg College Observatory | Change Station
CLOSE
Current Station
Personal Weather Station
Location: Waverly, IA
Elevation: 928 ft
Nearby Weather Stations

Elev 928 ft 42.73 °N, 92.49 °W | Updated 5 seconds ago

Overcast
Overcast
34.0 °F
Feels Like 34 °F
N
2.3
Wind Variable Wind from NNE
Gusts 2.3 mph

Today
High -- | Low -- °F
--% Chance of Precip.
Yesterday
High -- | Low -- °F
Precip. -- in
7:38 AM 4:40 PM
Waxing Crescent, 32% visible
Pressure 29.95 in
Visibility 7.0 miles
Clouds Mostly Cloudy 4200 ft
Overcast 4800 ft
Windchill 34 °F
Dew Point 32 °F
Humidity 94%
Rainfall 0.00 in
Snow Depth Not available.
UV 0.0 out of 12
Pollen .10 out of 12
Air Quality Not available.
Flu Activity Not available.
METAR KOLZ 270435Z AUTO 07006KT 7SM BKN042 OVC048 01/00 A2995 RMK AO2

More Conditions Fewer Conditions

Pressure 29.95 in
Visibility 7.0 miles
Clouds Mostly Cloudy 4200 ft
Overcast 4800 ft
Windchill 34 °F
Dew Point 32 °F
Humidity 94%
Rainfall 0.00 in
Snow Depth Not available.
UV 0.0 out of 12
Pollen .10 out of 12
Air Quality Not available.
Flu Activity Not available.
METAR KOLZ 270435Z AUTO 07006KT 7SM BKN042 OVC048 01/00 A2995 RMK AO2

More Conditions Fewer Conditions

10-Day Weather Forecast

Almanac

Astronomy

Dec. 26, 2014 Rise Set
Actual Time
Civil Twilight
Nautical Twilight
Astronomical Twilight
Moon
Length of Visible Light
Length of Day
Tomorrow will be .
, % of the Moon is Illuminated

Today's Extremes

State Highs State Lows

Community

WunderPhotos

Upload Photos

1,780,847 photos uploaded!

WunderBlogs® & News

Nearby

Air Quality

  Air Quality AQ Index Pollutant
Not available.

Snow Depth

Station Depth Elevation

Earthquake Activity

City Distance Mag. Time & Date
Minimum magnitude displayed is 2.5.

Coastal Water Temperatures

Place Temperature

Nearby Weather Stations